Observation data for Tatum on 12/08/2018      Previous  Date       Current Mesonet Observations  Soil Data  Daily Summary Page  Observations in Plain Language
KTAT 080600Z 02006KT M01/M01 A3027 RMK A01 T10071014  RH  096%=      5-min Rain = 0
KTAT 080605Z 03006KT M01/M01 A3026 RMK A01 T10071014  RH  096%=      5-min Rain = 0
KTAT 080610Z 03007KT M01/M02 A3026 RMK A01 T10071015  RH  096%=      5-min Rain = 0
KTAT 080615Z 03006KT M01/M02 A3026 RMK A01 T10081015  RH  096%=      5-min Rain = 0
KTAT 080620Z 03006KT M01/M02 A3026 RMK A01 T10081015  RH  096%=      5-min Rain = 0
KTAT 080625Z 02006KT M01/M01 A3026 RMK A01 T10081014  RH  096%=      5-min Rain = 0
KTAT 080630Z 02006KT M01/M01 A3025 RMK A01 T10071014  RH  096%=      5-min Rain = 0
KTAT 080635Z 02007KT M01/M01 A3025 RMK A01 T10071014  RH  096%=      5-min Rain = 0
KTAT 080640Z 02008KT M01/M02 A3025 RMK A01 T10081015  RH  096%=      5-min Rain = 0
KTAT 080645Z 02007KT M01/M02 A3025 RMK A01 T10081015  RH  096%=      5-min Rain = 0
KTAT 080650Z 01007KT M01/M02 A3025 RMK A01 T10081015  RH  096%=      5-min Rain = 0
KTAT 080655Z 01008KT M01/M02 A3024 RMK A01 T10081015  RH  096%=      5-min Rain = 0
KTAT 080700Z 01008KT M01/M02 A3024 RMK A01 T10081015  RH  096%=      5-min Rain = 0
KTAT 080705Z 01008KT M01/M02 A3024 RMK A01 T10091015  RH  096%=      5-min Rain = 0
KTAT 080710Z 01010KT M01/M02 A3023 RMK A01 T10091016  RH  096%=      5-min Rain = 0
KTAT 080715Z 02010KT M01/M02 A3023 RMK A01 T10091016  RH  096%=      5-min Rain = 0
KTAT 080720Z 01010KT M01/M02 A3023 RMK A01 T10091016  RH  096%=      5-min Rain = 0
KTAT 080725Z 01010KT M01/M02 A3023 RMK A01 T10091016  RH  096%=      5-min Rain = 0
KTAT 080730Z 01012KT M01/M02 A3023 RMK A01 T10101016  RH  096%=      5-min Rain = 0
KTAT 080735Z 01011KT M01/M02 A3023 RMK A01 T10101017  RH  096%=      5-min Rain = 0
KTAT 080740Z 01011KT M01/M02 A3022 RMK A01 T10101016  RH  096%=      5-min Rain = 0
KTAT 080745Z 01012KT M01/M02 A3022 RMK A01 T10111017  RH  096%=      5-min Rain = 0
KTAT 080750Z 01012KT M01/M02 A3022 RMK A01 T10111017  RH  096%=      5-min Rain = 0
KTAT 080755Z 01012KT M01/M02 A3022 RMK A01 T10111017  RH  096%=      5-min Rain = 0
KTAT 080800Z 01010KT M01/M02 A3022 RMK A01 T10111018  RH  096%=      5-min Rain = 0
KTAT 080805Z 01011KT M01/M02 A3022 RMK A01 T10111017  RH  097%=      5-min Rain = 0
KTAT 080810Z 01010KT M01/M02 A3022 RMK A01 T10121018  RH  097%=      5-min Rain = 0
KTAT 080815Z 01010KT M01/M02 A3022 RMK A01 T10121018  RH  097%=      5-min Rain = 0
KTAT 080820Z 02011KT M01/M02 A3022 RMK A01 T10121017  RH  097%=      5-min Rain = 0
KTAT 080825Z 02010KT M01/M02 A3023 RMK A01 T10121018  RH  097%=      5-min Rain = 0
KTAT 080830Z 01010KT M01/M02 A3023 RMK A01 T10111017  RH  097%=      5-min Rain = 0
KTAT 080835Z 01010KT M01/M02 A3023 RMK A01 T10121018  RH  097%=      5-min Rain = 0
KTAT 080840Z 01010KT M01/M02 A3023 RMK A01 T10121018  RH  097%=      5-min Rain = 0
KTAT 080845Z 01009KT M01/M02 A3023 RMK A01 T10121018  RH  097%=      5-min Rain = 0
KTAT 080850Z 01010KT M01/M02 A3023 RMK A01 T10121018  RH  097%=      5-min Rain = 0
KTAT 080855Z 01010KT M01/M02 A3023 RMK A01 T10121018  RH  097%=      5-min Rain = 0
KTAT 080900Z 01010KT M01/M02 A3023 RMK A01 T10121018  RH  097%=      5-min Rain = 0
KTAT 080905Z 01010KT M01/M02 A3023 RMK A01 T10121018  RH  097%=      5-min Rain = 0
KTAT 080910Z 01010KT M01/M02 A3023 RMK A01 T10131018  RH  097%=      5-min Rain = 0
KTAT 080915Z 01010KT M01/M02 A3023 RMK A01 T10131018  RH  097%=      5-min Rain = 0
KTAT 080920Z 01009KT M01/M02 A3023 RMK A01 T10131019  RH  097%=      5-min Rain = 0
KTAT 080925Z 01009KT M01/M02 A3023 RMK A01 T10131018  RH  097%=      5-min Rain = 0
KTAT 080930Z 01008KT M01/M02 A3023 RMK A01 T10121018  RH  097%=      5-min Rain = 0
KTAT 080935Z 01009KT M01/M02 A3023 RMK A01 T10131018  RH  097%=      5-min Rain = 0
KTAT 080940Z 01009KT M01/M02 A3023 RMK A01 T10131019  RH  097%=      5-min Rain = 0
KTAT 080945Z 01009KT M01/M02 A3023 RMK A01 T10141019  RH  097%=      5-min Rain = 0
KTAT 080950Z 01008KT M01/M02 A3023 RMK A01 T10141019  RH  097%=      5-min Rain = 0
KTAT 080955Z 01008KT M01/M02 A3023 RMK A01 T10141019  RH  097%=      5-min Rain = 0
KTAT 081000Z 01008KT M01/M02 A3023 RMK A01 T10141020  RH  097%=      5-min Rain = 0
KTAT 081005Z 01007KT M01/M02 A3023 RMK A01 T10141020  RH  097%=      5-min Rain = 0
KTAT 081010Z 01007KT M01/M02 A3023 RMK A01 T10141020  RH  097%=      5-min Rain = 0
KTAT 081015Z 01008KT M01/M02 A3023 RMK A01 T10141020  RH  097%=      5-min Rain = 0
KTAT 081020Z 01008KT M01/M02 A3023 RMK A01 T10141020  RH  097%=      5-min Rain = 0
KTAT 081025Z 01008KT M01/M02 A3023 RMK A01 T10141020  RH  097%=      5-min Rain = 0
KTAT 081030Z 01007KT M01/M02 A3023 RMK A01 T10141020  RH  097%=      5-min Rain = 0
KTAT 081035Z 01007KT M01/M02 A3023 RMK A01 T10141020  RH  097%=      5-min Rain = 0
KTAT 081040Z 01007KT M01/M02 A3023 RMK A01 T10141020  RH  097%=      5-min Rain = 0
KTAT 081045Z 01007KT M01/M02 A3023 RMK A01 T10141020  RH  097%=      5-min Rain = 0
KTAT 081050Z 01008KT M01/M02 A3023 RMK A01 T10141020  RH  097%=      5-min Rain = 0
KTAT 081055Z 01008KT M01/M02 A3023 RMK A01 T10141020  RH  097%=      5-min Rain = 0
KTAT 081100Z 01007KT M01/M02 A3023 RMK A01 T10141020  RH  097%=      5-min Rain = 0
KTAT 081105Z 01007KT M01/M02 A3023 RMK A01 T10141020  RH  097%=      5-min Rain = 0
KTAT 081110Z 01007KT M01/M02 A3023 RMK A01 T10141020  RH  097%=      5-min Rain = 0
KTAT 081115Z 01007KT M01/M02 A3023 RMK A01 T10141020  RH  097%=      5-min Rain = 0
KTAT 081120Z 01008KT M01/M02 A3024 RMK A01 T10141020  RH  097%=      5-min Rain = 0
KTAT 081125Z 01007KT M01/M02 A3024 RMK A01 T10141020  RH  097%=      5-min Rain = 0
KTAT 081130Z 01008KT M01/M02 A3024 RMK A01 T10141020  RH  097%=      5-min Rain = 0
KTAT 081135Z 00007KT M01/M02 A3024 RMK A01 T10141020  RH  097%=      5-min Rain = 0
KTAT 081140Z 00007KT M01/M02 A3024 RMK A01 T10141020  RH  097%=      5-min Rain = 0
KTAT 081145Z 00006KT M01/M02 A3025 RMK A01 T10141020  RH  097%=      5-min Rain = 0
KTAT 081150Z 36006KT M01/M02 A3025 RMK A01 T10141020  RH  097%=      5-min Rain = 0
KTAT 081155Z 36006KT M01/M02 A3025 RMK A01 T10141020  RH  097%=      5-min Rain = 0
KTAT 081200Z 36007KT M01/M02 A3025 RMK A01 T10141020  RH  097%=      5-min Rain = 0
KTAT 081205Z 00007KT M01/M02 A3025 RMK A01 T10141020  RH  097%=      5-min Rain = 0
KTAT 081210Z 00007KT M01/M02 A3025 RMK A01 T10141020  RH  097%=      5-min Rain = 0
KTAT 081215Z 00006KT M01/M02 A3025 RMK A01 T10141020  RH  097%=      5-min Rain = 0
KTAT 081220Z 00005KT M01/M02 A3025 RMK A01 T10141020  RH  097%=      5-min Rain = 0
KTAT 081225Z 01005KT M01/M02 A3025 RMK A01 T10141020  RH  097%=      5-min Rain = 0
KTAT 081230Z 01005KT M01/M02 A3025 RMK A01 T10141020  RH  097%=      5-min Rain = 0
KTAT 081235Z 01005KT M01/M02 A3026 RMK A01 T10141020  RH  097%=      5-min Rain = 0
KTAT 081240Z 01005KT M01/M02 A3026 RMK A01 T10141020  RH  097%=      5-min Rain = 0
KTAT 081245Z 01005KT M01/M02 A3026 RMK A01 T10141020  RH  097%=      5-min Rain = 0
KTAT 081250Z 01005KT M01/M02 A3026 RMK A01 T10141020  RH  097%=      5-min Rain = 0
KTAT 081255Z 00005KT M02/M02 A3026 RMK A01 T10151020  RH  097%=      5-min Rain = 0
KTAT 081300Z 36005KT M02/M02 A3026 RMK A01 T10151020  RH  097%=      5-min Rain = 0
KTAT 081305Z 35005KT M02/M02 A3027 RMK A01 T10151021  RH  097%=      5-min Rain = 0
KTAT 081310Z 36006KT M02/M02 A3027 RMK A01 T10151020  RH  097%=      5-min Rain = 0
KTAT 081315Z 00006KT M02/M02 A3027 RMK A01 T10151021  RH  097%=      5-min Rain = 0
KTAT 081320Z 35006KT M02/M02 A3027 RMK A01 T10151021  RH  097%=      5-min Rain = 0
KTAT 081325Z 35006KT M02/M02 A3027 RMK A01 T10151021  RH  097%=      5-min Rain = 0
KTAT 081330Z 35005KT M02/M02 A3027 RMK A01 T10151021  RH  097%=      5-min Rain = 0
KTAT 081335Z 34005KT M02/M02 A3027 RMK A01 T10151021  RH  097%=      5-min Rain = 0
KTAT 081340Z 33005KT M02/M02 A3027 RMK A01 T10151021  RH  096%=      5-min Rain = 0
KTAT 081345Z 33005KT M02/M02 A3028 RMK A01 T10151021  RH  096%=      5-min Rain = 0
KTAT 081350Z 33005KT M02/M02 A3028 RMK A01 T10151021  RH  096%=      5-min Rain = 0
KTAT 081355Z 34005KT M02/M02 A3028 RMK A01 T10151021  RH  096%=      5-min Rain = 0
KTAT 081400Z 35005KT M02/M02 A3028 RMK A01 T10151021  RH  096%=      5-min Rain = 0
KTAT 081405Z 34006KT M02/M02 A3028 RMK A01 T10151021  RH  096%=      5-min Rain = 0
KTAT 081410Z 34006KT M02/M02 A3028 RMK A01 T10151021  RH  096%=      5-min Rain = 0
KTAT 081415Z 34006KT M01/M02 A3028 RMK A01 T10141020  RH  096%=      5-min Rain = 0
KTAT 081420Z 35006KT M01/M02 A3028 RMK A01 T10141020  RH  096%=      5-min Rain = 0
KTAT 081425Z 35007KT M01/M02 A3028 RMK A01 T10131019  RH  096%=      5-min Rain = 0
KTAT 081430Z 35007KT M01/M02 A3028 RMK A01 T10131019  RH  096%=      5-min Rain = 0
KTAT 081435Z 35007KT M01/M02 A3028 RMK A01 T10121018  RH  097%=      5-min Rain = 0
KTAT 081440Z 35008KT M01/M02 A3029 RMK A01 T10121018  RH  097%=      5-min Rain = 0
KTAT 081445Z 35007KT M01/M02 A3029 RMK A01 T10111017  RH  097%=      5-min Rain = 0
KTAT 081450Z 36006KT M01/M02 A3029 RMK A01 T10111017  RH  097%=      5-min Rain = 0
KTAT 081455Z 36006KT M01/M02 A3029 RMK A01 T10101016  RH  097%=      5-min Rain = 0
KTAT 081500Z 00006KT M01/M02 A3029 RMK A01 T10101016  RH  097%=      5-min Rain = 0
KTAT 081505Z 00006KT M01/M02 A3029 RMK A01 T10091015  RH  097%=      5-min Rain = 0
KTAT 081510Z 00007KT M01/M02 A3029 RMK A01 T10091015  RH  097%=      5-min Rain = 0
KTAT 081515Z 01007KT M01/M02 A303 RMK A01 T10091015  RH  097%=      5-min Rain = 0
KTAT 081520Z 01007KT M01/M02 A303 RMK A01 T10091015  RH  097%=      5-min Rain = 0
KTAT 081525Z 01007KT M01/M01 A303 RMK A01 T10081014  RH  097%=      5-min Rain = 0
KTAT 081530Z 01007KT M01/M01 A303 RMK A01 T10081014  RH  097%=      5-min Rain = 0
KTAT 081535Z 01007KT M01/M01 A303 RMK A01 T10071013  RH  097%=      5-min Rain = 0
KTAT 081540Z 02007KT M01/M01 A303 RMK A01 T10061012  RH  097%=      5-min Rain = 0
KTAT 081545Z 02008KT M01/M01 A303 RMK A01 T10051011  RH  097%=      5-min Rain = 0
KTAT 081550Z 01008KT M00/M01 A303 RMK A01 T10041010  RH  097%=      5-min Rain = 0
KTAT 081555Z 01007KT M00/M01 A303 RMK A01 T10041010  RH  097%=      5-min Rain = 0
KTAT 081600Z 01008KT M00/M01 A303 RMK A01 T10031009  RH  097%=      5-min Rain = 0
KTAT 081605Z 01008KT M00/M01 A3031 RMK A01 T10031009  RH  097%=      5-min Rain = 0
KTAT 081610Z 01008KT M00/M01 A3031 RMK A01 T10031009  RH  097%=      5-min Rain = 0
KTAT 081615Z 01007KT M00/M01 A3031 RMK A01 T10021008  RH  097%=      5-min Rain = 0
KTAT 081620Z 01007KT M00/M01 A3031 RMK A01 T10021008  RH  097%=      5-min Rain = 0.01
KTAT 081625Z 00007KT M00/M01 A3031 RMK A01 T10011008  RH  097%=      5-min Rain = 0
KTAT 081630Z 00007KT M00/M01 A3031 RMK A01 T10011007  RH  097%=      5-min Rain = 0
KTAT 081635Z 36008KT M00/M01 A3031 RMK A01 T10011007  RH  097%=      5-min Rain = 0
KTAT 081640Z 00007KT M00/M01 A3032 RMK A01 T10011007  RH  097%=      5-min Rain = 0
KTAT 081645Z 00007KT 00/01 A3032 RMK A01 T00-000-7  RH  097%=      5-min Rain = 0
KTAT 081650Z 00006KT 00/M01 A3032 RMK A01 T00011006  RH  097%=      5-min Rain = 0
KTAT 081655Z 35007KT 00/M01 A3032 RMK A01 T00011006  RH  097%=      5-min Rain = 0
KTAT 081700Z 36008KT 00/01 A3032 RMK A01 T000000-6  RH  096%=      5-min Rain = 0
KTAT 081705Z 36007KT 00/M01 A3032 RMK A01 T00011005  RH  096%=      5-min Rain = 0
KTAT 081710Z 00007KT 00/M01 A3032 RMK A01 T00011005  RH  096%=      5-min Rain = 0
KTAT 081715Z 00007KT 00/M01 A3032 RMK A01 T00021005  RH  096%=      5-min Rain = 0
KTAT 081720Z 00006KT 00/M00 A3032 RMK A01 T00021004  RH  096%=      5-min Rain = 0
KTAT 081725Z 01005KT 00/M00 A3032 RMK A01 T00031004  RH  096%=      5-min Rain = 0
KTAT 081730Z 01006KT 00/M00 A3031 RMK A01 T00041003  RH  096%=      5-min Rain = 0
KTAT 081735Z 02005KT 01/M00 A3031 RMK A01 T00051002  RH  096%=      5-min Rain = 0
KTAT 081740Z 02005KT 01/M00 A3031 RMK A01 T00051001  RH  096%=      5-min Rain = 0
KTAT 081745Z 01006KT 01/M00 A3031 RMK A01 T00061001  RH  096%=      5-min Rain = 0
KTAT 081750Z 01005KT 01/M00 A3031 RMK A01 T00071001  RH  096%=      5-min Rain = 0
KTAT 081755Z 02005KT 01/M00 A3031 RMK A01 T00061001  RH  096%=      5-min Rain = 0
KTAT 081800Z 01005KT 01/00 A303 RMK A01 T00080001  RH  096%=      5-min Rain = 0
KTAT 081805Z 01005KT 01/00 A3031 RMK A01 T00080000  RH  096%=      5-min Rain = 0
KTAT 081810Z 01005KT 01/00 A3031 RMK A01 T00080000  RH  096%=      5-min Rain = 0
KTAT 081815Z 01005KT 01/M00 A303 RMK A01 T00071001  RH  096%=      5-min Rain = 0
KTAT 081820Z 01004KT 01/00 A303 RMK A01 T00100002  RH  096%=      5-min Rain = 0
KTAT 081825Z 01005KT 01/00 A303 RMK A01 T00110002  RH  095%=      5-min Rain = 0
KTAT 081830Z 02005KT 01/00 A3029 RMK A01 T00090000  RH  095%=      5-min Rain = 0
KTAT 081835Z 02004KT 01/00 A3029 RMK A01 T00090000  RH  095%=      5-min Rain = 0
KTAT 081840Z 02004KT 01/00 A3029 RMK A01 T00100001  RH  095%=      5-min Rain = 0
KTAT 081845Z 01004KT 01/00 A3029 RMK A01 T00110002  RH  095%=      5-min Rain = 0
KTAT 081850Z 34004KT 01/00 A3029 RMK A01 T00100001  RH  094%=      5-min Rain = 0
KTAT 081855Z 34003KT 01/00 A3029 RMK A01 T00110001  RH  094%=      5-min Rain = 0
KTAT 081900Z 32003KT 01/00 A3028 RMK A01 T00100000  RH  094%=      5-min Rain = 0
KTAT 081905Z 32003KT 01/M00 A3028 RMK A01 T00091001  RH  094%=      5-min Rain = 0
KTAT 081910Z 33003KT 01/00 A3028 RMK A01 T00100000  RH  094%=      5-min Rain = 0
KTAT 081915Z 33003KT 01/M00 A3027 RMK A01 T00101001  RH  094%=      5-min Rain = 0
KTAT 081920Z 33004KT 01/M00 A3027 RMK A01 T00091004  RH  092%=      5-min Rain = 0
KTAT 081925Z 34004KT 01/M01 A3027 RMK A01 T00091008  RH  089%=      5-min Rain = 0
KTAT 081930Z 35003KT 01/M01 A3026 RMK A01 T00101013  RH  086%=      5-min Rain = 0
KTAT 081935Z 34003KT 01/M01 A3026 RMK A01 T00121014  RH  084%=      5-min Rain = 0
KTAT 081940Z 32003KT 01/M01 A3026 RMK A01 T00141013  RH  083%=      5-min Rain = 0
KTAT 081945Z 33002KT 02/M01 A3026 RMK A01 T00171011  RH  082%=      5-min Rain = 0
KTAT 081950Z 31002KT 02/M01 A3026 RMK A01 T00181013  RH  081%=      5-min Rain = 0
KTAT 081955Z 32002KT 02/M01 A3025 RMK A01 T00181013  RH  081%=      5-min Rain = 0
KTAT 082000Z 32002KT 02/M01 A3025 RMK A01 T00201013  RH  080%=      5-min Rain = 0
KTAT 082005Z 32001KT 03/M01 A3025 RMK A01 T00261010  RH  078%=      5-min Rain = 0
KTAT 082010Z 33001KT 04/M01 A3025 RMK A01 T00351007  RH  075%=      5-min Rain = 0
KTAT 082015Z 33001KT 03/M01 A3025 RMK A01 T00341013  RH  072%=      5-min Rain = 0
KTAT 082020Z 28001KT 03/M01 A3025 RMK A01 T00311011  RH  075%=      5-min Rain = 0
KTAT 082025Z 30001KT 02/M00 A3025 RMK A01 T00241003  RH  083%=      5-min Rain = 0
KTAT 082030Z 30002KT 02/00 A3024 RMK A01 T00230003  RH  088%=      5-min Rain = 0
KTAT 082035Z 33002KT 02/01 A3024 RMK A01 T00210005  RH  091%=      5-min Rain = 0
KTAT 082040Z 01001KT 02/01 A3024 RMK A01 T00210008  RH  092%=      5-min Rain = 0
KTAT 082045Z 32001KT 02/01 A3024 RMK A01 T00220010  RH  093%=      5-min Rain = 0
KTAT 082050Z 32001KT 02/01 A3024 RMK A01 T00230011  RH  093%=      5-min Rain = 0
KTAT 082055Z 30001KT 02/01 A3024 RMK A01 T00240012  RH  093%=      5-min Rain = 0
KTAT 082100Z 30001KT 03/01 A3024 RMK A01 T00250012  RH  093%=      5-min Rain = 0.02
KTAT 082105Z 35001KT 02/01 A3024 RMK A01 T00240011  RH  093%=      5-min Rain = 0.02
KTAT 082110Z 29000KT 03/02 A3024 RMK A01 T00270015  RH  093%=      5-min Rain = 0.02
KTAT 082115Z 25001KT 03/01 A3024 RMK A01 T00260008  RH  089%=      5-min Rain = 0.02
KTAT 082120Z 21001KT 03/01 A3023 RMK A01 T00310011  RH  088%=      5-min Rain = 0.02
KTAT 082125Z 22002KT 03/00 A3023 RMK A01 T00320002  RH  082%=      5-min Rain = 0.02
KTAT 082130Z 20002KT 03/M00 A3023 RMK A01 T00301001  RH  081%=      5-min Rain = 0.01
KTAT 082135Z 20001KT 04/M00 A3023 RMK A01 T00361001  RH  078%=      5-min Rain = 0.02
KTAT 082140Z 23001KT 04/M01 A3023 RMK A01 T00431005  RH  072%=      5-min Rain = 0.01
KTAT 082145Z 24000KT 04/M01 A3023 RMK A01 T00421012  RH  069%=      5-min Rain = 0.01
KTAT 082150Z 12000KT 05/M01 A3023 RMK A01 T00461010  RH  067%=      5-min Rain = 0.02
KTAT 082155Z 15000KT 05/M01 A3023 RMK A01 T00531011  RH  064%=      5-min Rain = 0.01
KTAT 082200Z 23000KT 06/M01 A3023 RMK A01 T00561013  RH  061%=      5-min Rain = 0.01
KTAT 082205Z 21000KT 05/M02 A3023 RMK A01 T00531015  RH  062%=      5-min Rain = 0.01
KTAT 082210Z 22000KT 05/M02 A3023 RMK A01 T00521017  RH  061%=      5-min Rain = 0.01
KTAT 082215Z 26001KT 05/M02 A3023 RMK A01 T00491019  RH  062%=      5-min Rain = 0.01
KTAT 082220Z 20002KT 05/M02 A3023 RMK A01 T00471017  RH  063%=      5-min Rain = 0
KTAT 082225Z 19002KT 05/M02 A3023 RMK A01 T00451018  RH  064%=      5-min Rain = 0.01
KTAT 082230Z 19002KT 05/M02 A3023 RMK A01 T00471017  RH  064%=      5-min Rain = 0.01
KTAT 082235Z 19003KT 04/M02 A3023 RMK A01 T00411020  RH  065%=      5-min Rain = 0
KTAT 082240Z 19003KT 04/M02 A3023 RMK A01 T00351019  RH  068%=      5-min Rain = 0.01
KTAT 082245Z 20003KT 04/M02 A3023 RMK A01 T00351018  RH  069%=      5-min Rain = 0
KTAT 082250Z 20003KT 03/M02 A3023 RMK A01 T00331018  RH  069%=      5-min Rain = 0.01
KTAT 082255Z 20003KT 03/M02 A3023 RMK A01 T00311018  RH  070%=      5-min Rain = 0
KTAT 082300Z 18003KT 03/M02 A3023 RMK A01 T00311018  RH  071%=      5-min Rain = 0
KTAT 082305Z 17003KT 03/M02 A3023 RMK A01 T00311019  RH  070%=      5-min Rain = 0
KTAT 082310Z 16004KT 03/M02 A3023 RMK A01 T00301021  RH  070%=      5-min Rain = 0
KTAT 082315Z 16004KT 03/M02 A3023 RMK A01 T00261022  RH  071%=      5-min Rain = 0.01
KTAT 082320Z 16004KT 02/M02 A3023 RMK A01 T00231023  RH  072%=      5-min Rain = 0
KTAT 082325Z 16004KT 02/M03 A3023 RMK A01 T00191025  RH  073%=      5-min Rain = 0
KTAT 082330Z 16004KT 01/M03 A3023 RMK A01 T00141027  RH  075%=      5-min Rain = 0
KTAT 082335Z 15004KT 01/M03 A3023 RMK A01 T00071029  RH  077%=      5-min Rain = 0
KTAT 082340Z 14004KT M00/M03 A3023 RMK A01 T10011032  RH  080%=      5-min Rain = 0
KTAT 082345Z 15004KT M01/M03 A3023 RMK A01 T10051033  RH  082%=      5-min Rain = 0
KTAT 082350Z 15005KT M01/M03 A3022 RMK A01 T10101034  RH  084%=      5-min Rain = 0
KTAT 082355Z 15005KT M01/M03 A3022 RMK A01 T10131034  RH  086%=      5-min Rain = 0
KTAT 090000Z 14005KT M02/M03 A3022 RMK A01 T10151034  RH  087%=      5-min Rain = 0
KTAT 090005Z 14004KT M02/M03 A3022 RMK A01 T10151033  RH  088%=      5-min Rain = 0
KTAT 090010Z 15004KT M02/M03 A3023 RMK A01 T10161033  RH  089%=      5-min Rain = 0
KTAT 090015Z 15004KT M02/M03 A3023 RMK A01 T10171034  RH  089%=      5-min Rain = 0
KTAT 090020Z 15005KT M02/M04 A3023 RMK A01 T10191035  RH  089%=      5-min Rain = 0
KTAT 090025Z 15005KT M02/M04 A3023 RMK A01 T10221037  RH  090%=      5-min Rain = 0
KTAT 090030Z 15006KT M02/M04 A3023 RMK A01 T10231037  RH  090%=      5-min Rain = 0
KTAT 090035Z 16005KT M03/M04 A3023 RMK A01 T10251039  RH  090%=      5-min Rain = 0
KTAT 090040Z 17005KT M03/M04 A3023 RMK A01 T10271041  RH  091%=      5-min Rain = 0
KTAT 090045Z 16005KT M03/M04 A3024 RMK A01 T10291043  RH  091%=      5-min Rain = 0
KTAT 090050Z 14005KT M03/M04 A3024 RMK A01 T10311044  RH  091%=      5-min Rain = 0
KTAT 090055Z 15006KT M03/M04 A3024 RMK A01 T10321044  RH  092%=      5-min Rain = 0
KTAT 090100Z 16006KT M03/M04 A3024 RMK A01 T10331044  RH  093%=      5-min Rain = 0
KTAT 090105Z 16006KT M03/M05 A3024 RMK A01 T10341045  RH  093%=      5-min Rain = 0
KTAT 090110Z 16005KT M04/M05 A3024 RMK A01 T10351046  RH  093%=      5-min Rain = 0
KTAT 090115Z 16006KT M04/M05 A3025 RMK A01 T10361047  RH  093%=      5-min Rain = 0
KTAT 090120Z 17006KT M04/M05 A3025 RMK A01 T10391049  RH  093%=      5-min Rain = 0
KTAT 090125Z 17006KT M04/M05 A3025 RMK A01 T10411051  RH  093%=      5-min Rain = 0
KTAT 090130Z 18005KT M04/M05 A3025 RMK A01 T10421053  RH  093%=      5-min Rain = 0
KTAT 090135Z 18005KT M05/M06 A3025 RMK A01 T10451056  RH  092%=      5-min Rain = 0
KTAT 090140Z 19005KT M05/M06 A3026 RMK A01 T10471057  RH  093%=      5-min Rain = 0
KTAT 090145Z 19005KT M05/M06 A3026 RMK A01 T10471056  RH  094%=      5-min Rain = 0
KTAT 090150Z 19005KT M05/M06 A3026 RMK A01 T10481057  RH  093%=      5-min Rain = 0
KTAT 090155Z 19004KT M05/M06 A3026 RMK A01 T10491058  RH  093%=      5-min Rain = 0
KTAT 090200Z 21004KT M05/M06 A3027 RMK A01 T10491058  RH  094%=      5-min Rain = 0
KTAT 090205Z 20004KT M05/M06 A3027 RMK A01 T10501059  RH  094%=      5-min Rain = 0
KTAT 090210Z 20004KT M05/M06 A3027 RMK A01 T10501059  RH  094%=      5-min Rain = 0
KTAT 090215Z 19004KT M05/M06 A3026 RMK A01 T10491057  RH  094%=      5-min Rain = 0
KTAT 090220Z 19004KT M05/M06 A3027 RMK A01 T10501059  RH  093%=      5-min Rain = 0
KTAT 090225Z 19005KT M05/M06 A3026 RMK A01 T10511061  RH  093%=      5-min Rain = 0
KTAT 090230Z 20004KT M05/M06 A3027 RMK A01 T10521061  RH  094%=      5-min Rain = 0
KTAT 090235Z 20004KT M05/M06 A3027 RMK A01 T10511060  RH  094%=      5-min Rain = 0
KTAT 090240Z 20004KT M05/M06 A3027 RMK A01 T10531062  RH  093%=      5-min Rain = 0
KTAT 090245Z 19004KT M05/M06 A3027 RMK A01 T10541063  RH  093%=      5-min Rain = 0
KTAT 090250Z 19004KT M05/M06 A3026 RMK A01 T10541062  RH  094%=      5-min Rain = 0
KTAT 090255Z 19005KT M05/M06 A3026 RMK A01 T10541064  RH  093%=      5-min Rain = 0
KTAT 090300Z 19005KT M06/M07 A3026 RMK A01 T10561066  RH  093%=      5-min Rain = 0
KTAT 090305Z 19005KT M06/M07 A3026 RMK A01 T10561065  RH  093%=      5-min Rain = 0
KTAT 090310Z 19005KT M06/M06 A3026 RMK A01 T10551063  RH  094%=      5-min Rain = 0
KTAT 090315Z 19005KT M05/M06 A3026 RMK A01 T10541063  RH  094%=      5-min Rain = 0
KTAT 090320Z 20004KT M06/M06 A3027 RMK A01 T10551063  RH  094%=      5-min Rain = 0
KTAT 090325Z 20005KT M06/M07 A3027 RMK A01 T10571066  RH  093%=      5-min Rain = 0
KTAT 090330Z 20004KT M06/M07 A3027 RMK A01 T10581068  RH  093%=      5-min Rain = 0
KTAT 090335Z 20004KT M06/M07 A3027 RMK A01 T10581067  RH  093%=      5-min Rain = 0
KTAT 090340Z 21004KT M06/M07 A3027 RMK A01 T10581067  RH  093%=      5-min Rain = 0
KTAT 090345Z 21004KT M06/M07 A3027 RMK A01 T10591068  RH  093%=      5-min Rain = 0
KTAT 090350Z 21004KT M06/M07 A3027 RMK A01 T10591068  RH  093%=      5-min Rain = 0
KTAT 090355Z 21003KT M06/M07 A3027 RMK A01 T10581067  RH  094%=      5-min Rain = 0
KTAT 090400Z 22003KT M06/M07 A3027 RMK A01 T10601069  RH  093%=      5-min Rain = 0
KTAT 090405Z 23003KT M06/M07 A3027 RMK A01 T10601069  RH  093%=      5-min Rain = 0
KTAT 090410Z 23003KT M06/M07 A3027 RMK A01 T10601068  RH  094%=      5-min Rain = 0
KTAT 090415Z 24002KT M06/M07 A3027 RMK A01 T10621071  RH  093%=      5-min Rain = 0
KTAT 090420Z 25002KT M06/M07 A3027 RMK A01 T10631072  RH  093%=      5-min Rain = 0
KTAT 090425Z 26002KT M06/M07 A3027 RMK A01 T10641073  RH  094%=      5-min Rain = 0
KTAT 090430Z 26002KT M06/M07 A3027 RMK A01 T10621070  RH  094%=      5-min Rain = 0
KTAT 090435Z 27002KT M06/M07 A3027 RMK A01 T10601068  RH  094%=      5-min Rain = 0
KTAT 090440Z 27002KT M06/M07 A3027 RMK A01 T10621071  RH  094%=      5-min Rain = 0
KTAT 090445Z 27002KT M06/M07 A3027 RMK A01 T10641072  RH  094%=      5-min Rain = 0
KTAT 090450Z 29002KT M07/M07 A3028 RMK A01 T10651073  RH  094%=      5-min Rain = 0
KTAT 090455Z 27002KT M07/M07 A3028 RMK A01 T10651073  RH  094%=      5-min Rain = 0
KTAT 090500Z 27002KT M07/M07 A3028 RMK A01 T10651073  RH  094%=      5-min Rain = 0
KTAT 090505Z 28001KT M07/M08 A3028 RMK A01 T10661075  RH  094%=      5-min Rain = 0
KTAT 090510Z 27001KT M07/M08 A3028 RMK A01 T10671075  RH  094%=      5-min Rain = 0
KTAT 090515Z 27002KT M07/M07 A3028 RMK A01 T10661074  RH  094%=      5-min Rain = 0
KTAT 090520Z 27002KT M07/M07 A3028 RMK A01 T10651073  RH  094%=      5-min Rain = 0
KTAT 090525Z 27002KT M07/M07 A3028 RMK A01 T10651073  RH  094%=      5-min Rain = 0
KTAT 090530Z 27002KT M07/M07 A3029 RMK A01 T10651073  RH  094%=      5-min Rain = 0
KTAT 090535Z 27003KT M07/M07 A3029 RMK A01 T10661074  RH  094%=      5-min Rain = 0
KTAT 090540Z 27003KT M07/M08 A3029 RMK A01 T10691079  RH  093%=      5-min Rain = 0
KTAT 090545Z 27003KT M07/M08 A3029 RMK A01 T10701079  RH  093%=      5-min Rain = 0
KTAT 090550Z 27002KT M07/M08 A3028 RMK A01 T10711080  RH  093%=      5-min Rain = 0
KTAT 090555Z 26002KT M07/M08 A3028 RMK A01 T10701079  RH  093%=      5-min Rain = 0

Page generated in 0.0089 seconds.